ポンタ・デルガダ の空港の天気 - METARとTAF

ポンタ・デルガダ空港 ( LPPD / PDL ) - ポルトガル ポンタ・デルガダ (サンミゲル島)
飛行場実況気象(Metar)
観測時間11/27 07:30 AZOT (11/27 08:30 UTC)
風向・風速北 3m/s
視程10km以上
天気現象
少しの雲 雲底高度 550m
気温12℃
湿度71%
気圧1028hPa
METARLPPD 270830Z 01005KT 9999 FEW018 12/07 Q1028
過去の天気等 Google飛行場航空写真 Wunderground天気予報

過去48時間のMETAR

飛行場予報(TAF)
発表時間: 11/27 04:00 AZOT (11/27 05:00 UTC)
予報対象時間: 27日5時 AZOT ~ 28日5時 AZOT
風向・風速北 4m/s
視程10km以上
全天の4割程度の雲 雲底高度 550m
27日5時 AZOT ~ 27日7時 AZOT に徐々に
風向・風速北東 4m/s
27日9時 AZOT ~ 27日11時 AZOT に徐々に
風向・風速東南東 5m/s
27日16時 AZOT ~ 27日19時 AZOT に徐々に
風向・風速南南東 7m/s
全天の4割程度の雲 雲底高度 370m
全天の8割程度の雲 雲底高度 910m
27日20時 AZOT ~ 28日5時 AZOT に一時的に
全天の8割程度の雲 雲底高度 370m
TAF LPPD 270500Z 2706/2806 36008KT 9999 SCT018
BECMG 2706/2708 04008KT
BECMG 2710/2712 12010KT
BECMG 2717/2720 15013KT SCT012 BKN030
TEMPO 2721/2806 BKN012